createdAt,value
2022-07-25T00:00:10.883Z,4.70
2022-07-25T00:01:10.850Z,5.00
2022-07-25T00:02:10.884Z,4.90
2022-07-25T00:03:11.096Z,4.80
2022-07-25T00:04:12.060Z,5.30
2022-07-25T00:05:10.805Z,5.00
2022-07-25T00:06:13.480Z,5.10
2022-07-25T00:07:11.785Z,4.60
2022-07-25T00:08:10.786Z,4.90
2022-07-25T00:09:10.786Z,4.80
2022-07-25T00:10:10.757Z,5.40
2022-07-25T00:11:10.747Z,5.40
2022-07-25T00:12:11.208Z,5.10
2022-07-25T00:13:10.719Z,4.80
2022-07-25T00:14:10.904Z,5.30
2022-07-25T00:15:10.718Z,5.30
2022-07-25T00:16:10.752Z,4.80
2022-07-25T00:17:10.690Z,5.20
2022-07-25T00:18:10.669Z,5.70
2022-07-25T00:19:10.689Z,4.90
2022-07-25T00:20:10.650Z,5.10
2022-07-25T00:21:10.643Z,5.10
2022-07-25T00:22:10.631Z,5.50
2022-07-25T00:23:10.622Z,5.70
2022-07-25T00:24:10.904Z,5.60
2022-07-25T00:25:10.601Z,5.70
2022-07-25T00:26:10.603Z,5.30
2022-07-25T00:27:10.582Z,6.00
2022-07-25T00:28:10.565Z,5.70
2022-07-25T00:29:10.585Z,5.40
2022-07-25T00:30:10.549Z,5.70
2022-07-25T00:31:10.627Z,5.10
2022-07-25T00:32:10.529Z,5.00
2022-07-25T00:33:10.517Z,5.30
2022-07-25T00:34:10.895Z,5.10
2022-07-25T00:35:10.517Z,5.30
2022-07-25T00:36:10.489Z,5.00
2022-07-25T00:37:10.480Z,5.30
2022-07-25T00:38:10.488Z,5.10
2022-07-25T00:39:10.479Z,5.20
2022-07-25T00:40:10.438Z,5.20
2022-07-25T00:41:10.440Z,5.10
2022-07-25T00:42:10.419Z,5.00
2022-07-25T00:43:10.419Z,4.70
2022-07-25T00:44:10.420Z,5.80
2022-07-25T00:45:10.391Z,5.50
2022-07-25T00:46:10.432Z,5.00
2022-07-25T00:47:10.373Z,5.00
2022-07-25T00:48:10.352Z,5.10
2022-07-25T00:49:10.396Z,5.60
2022-07-25T00:50:10.342Z,4.90
2022-07-25T00:51:10.327Z,5.10
2022-07-25T00:52:10.314Z,5.40
2022-07-25T00:53:10.314Z,5.40
2022-07-25T00:54:10.325Z,5.30
2022-07-25T00:55:10.285Z,5.10
2022-07-25T00:56:10.286Z,5.60
2022-07-25T00:57:10.265Z,5.50
2022-07-25T00:58:10.247Z,5.50
2022-07-25T00:59:10.248Z,5.60
2022-07-25T01:00:10.253Z,5.30
2022-07-25T01:01:10.285Z,4.90
2022-07-25T01:02:10.246Z,5.60
2022-07-25T01:03:10.252Z,5.80
2022-07-25T01:04:10.195Z,5.50
2022-07-25T01:05:10.410Z,5.70
2022-07-25T01:06:10.171Z,5.10
2022-07-25T01:07:10.161Z,5.60
2022-07-25T01:08:10.145Z,5.10
2022-07-25T01:09:10.140Z,5.20
2022-07-25T01:10:10.152Z,5.50
2022-07-25T01:11:10.118Z,5.40
2022-07-25T01:12:10.127Z,5.50
2022-07-25T01:13:10.098Z,5.20
2022-07-25T01:14:10.211Z,5.70
2022-07-25T01:15:10.093Z,5.20
2022-07-25T01:16:10.105Z,5.60
2022-07-25T01:17:10.054Z,5.40
2022-07-25T01:18:10.115Z,5.20
2022-07-25T01:19:10.195Z,4.90
2022-07-25T01:20:10.036Z,5.50
2022-07-25T01:21:10.021Z,5.30
2022-07-25T01:22:09.999Z,5.10
2022-07-25T01:23:09.989Z,5.00
2022-07-25T01:24:09.979Z,5.40
2022-07-25T01:25:09.997Z,5.20
2022-07-25T01:26:09.948Z,5.50
2022-07-25T01:27:09.946Z,5.60
2022-07-25T01:28:10.927Z,5.80
2022-07-25T01:29:09.928Z,5.40
2022-07-25T01:30:09.929Z,5.00
2022-07-25T01:31:09.936Z,5.90
2022-07-25T01:32:09.889Z,5.00
2022-07-25T01:33:09.880Z,4.90
2022-07-25T01:34:10.095Z,5.30
2022-07-25T01:35:09.881Z,5.60
2022-07-25T01:36:09.843Z,4.90
2022-07-25T01:37:09.841Z,5.50
2022-07-25T01:38:09.831Z,4.90
2022-07-25T01:39:09.822Z,4.80
2022-07-25T01:40:09.823Z,5.60
2022-07-25T01:41:09.794Z,4.70
2022-07-25T01:42:09.785Z,5.30
2022-07-25T01:43:09.782Z,5.10
2022-07-25T01:44:10.045Z,5.30
2022-07-25T01:45:09.775Z,5.30
2022-07-25T01:46:09.771Z,5.50
2022-07-25T01:47:09.736Z,5.00
2022-07-25T01:48:09.728Z,5.70
2022-07-25T01:49:09.817Z,5.90
2022-07-25T01:50:09.719Z,5.90
2022-07-25T01:51:09.687Z,6.00
2022-07-25T01:52:09.678Z,6.10
2022-07-25T01:53:09.669Z,6.50
2022-07-25T01:54:10.595Z,6.20
2022-07-25T01:55:09.673Z,6.40
2022-07-25T01:56:10.201Z,6.30
2022-07-25T01:57:09.631Z,6.30
2022-07-25T01:58:09.628Z,7.20
2022-07-25T01:59:09.610Z,6.60
2022-07-25T02:00:09.623Z,6.50
2022-07-25T02:01:09.616Z,6.00
2022-07-25T02:02:09.584Z,5.80
2022-07-25T02:03:09.568Z,5.80
2022-07-25T02:04:09.965Z,5.70
2022-07-25T02:05:09.684Z,5.70
2022-07-25T02:06:09.524Z,5.80
2022-07-25T02:07:09.525Z,5.80
2022-07-25T02:08:10.611Z,5.70
2022-07-25T02:09:09.496Z,5.70
2022-07-25T02:10:09.508Z,5.50
2022-07-25T02:11:09.488Z,5.70
2022-07-25T02:12:09.467Z,5.30
2022-07-25T02:13:09.457Z,5.50
2022-07-25T02:14:09.674Z,5.60
2022-07-25T02:15:09.459Z,5.60
2022-07-25T02:16:09.431Z,5.50
2022-07-25T02:17:09.460Z,5.40
2022-07-25T02:18:09.398Z,5.60
2022-07-25T02:19:09.390Z,5.30
2022-07-25T02:20:09.402Z,5.30
2022-07-25T02:21:14.478Z,5.40
2022-07-25T02:22:10.350Z,5.10
2022-07-25T02:23:09.350Z,5.70
2022-07-25T02:24:09.786Z,5.30
2022-07-25T02:25:09.352Z,5.30
2022-07-25T02:26:09.312Z,5.40
2022-07-25T02:27:09.312Z,5.40
2022-07-25T02:28:10.700Z,5.90
2022-07-25T02:29:09.283Z,5.70
2022-07-25T02:30:09.294Z,5.60
2022-07-25T02:31:09.335Z,5.50
2022-07-25T02:32:09.256Z,5.90
2022-07-25T02:33:09.248Z,5.90
2022-07-25T02:34:09.607Z,5.20
2022-07-25T02:35:09.954Z,5.80
2022-07-25T02:36:09.207Z,5.50
2022-07-25T02:37:09.212Z,6.10
2022-07-25T02:38:09.196Z,5.70
2022-07-25T02:39:09.187Z,5.70
2022-07-25T02:40:09.188Z,5.50
2022-07-25T02:41:09.157Z,5.70
2022-07-25T02:42:09.149Z,6.00
2022-07-25T02:43:09.137Z,6.00
2022-07-25T02:44:09.682Z,5.70
2022-07-25T02:45:09.144Z,5.80
2022-07-25T02:46:09.180Z,5.70
2022-07-25T02:47:09.104Z,5.60
2022-07-25T02:48:09.082Z,5.90
2022-07-25T02:49:09.152Z,5.60
2022-07-25T02:50:09.086Z,5.70
2022-07-25T02:51:10.051Z,5.90
2022-07-25T02:52:09.053Z,5.50
2022-07-25T02:53:09.057Z,5.20
2022-07-25T02:54:09.021Z,6.40
2022-07-25T02:55:09.859Z,6.30
2022-07-25T02:56:09.016Z,5.70
2022-07-25T02:57:08.995Z,6.00
2022-07-25T02:58:09.002Z,5.90
2022-07-25T02:59:08.969Z,5.90
2022-07-25T03:00:08.977Z,5.80
2022-07-25T03:01:09.045Z,5.60
2022-07-25T03:02:08.947Z,5.50
2022-07-25T03:03:08.936Z,5.80
2022-07-25T03:04:09.414Z,6.00
2022-07-25T03:05:08.938Z,5.40
2022-07-25T03:06:08.910Z,5.80
2022-07-25T03:07:08.890Z,5.50
2022-07-25T03:08:08.877Z,5.80
2022-07-25T03:09:08.869Z,5.50
2022-07-25T03:10:10.915Z,5.50
2022-07-25T03:11:08.852Z,5.60
2022-07-25T03:12:08.830Z,5.60
2022-07-25T03:13:08.821Z,5.80
2022-07-25T03:14:09.151Z,5.30
2022-07-25T03:15:08.830Z,5.70
2022-07-25T03:16:08.793Z,6.50
2022-07-25T03:17:08.839Z,5.40
2022-07-25T03:18:08.775Z,5.80
2022-07-25T03:19:08.766Z,5.40
2022-07-25T03:20:08.774Z,5.80
2022-07-25T03:21:08.743Z,5.90
2022-07-25T03:22:08.754Z,6.10
2022-07-25T03:23:08.714Z,6.10
2022-07-25T03:24:09.065Z,6.50
2022-07-25T03:25:15.799Z,6.70
2022-07-25T03:26:09.679Z,6.80
2022-07-25T03:27:08.634Z,6.70
2022-07-25T03:28:08.617Z,6.90
2022-07-25T03:29:08.605Z,6.10
2022-07-25T03:30:08.607Z,6.10
2022-07-25T03:31:08.605Z,6.70
2022-07-25T03:32:08.677Z,5.80
2022-07-25T03:33:08.618Z,6.40
2022-07-25T03:34:08.928Z,6.40
2022-07-25T03:35:08.621Z,5.70
2022-07-25T03:36:08.579Z,6.60
2022-07-25T03:37:08.532Z,5.80
2022-07-25T03:38:08.500Z,5.70
2022-07-25T03:39:08.511Z,6.10
2022-07-25T03:40:08.511Z,6.00
2022-07-25T03:41:08.471Z,6.70
2022-07-25T03:42:08.511Z,6.00
2022-07-25T03:43:08.513Z,5.50
2022-07-25T03:44:09.107Z,6.00
2022-07-25T03:45:08.452Z,6.30
2022-07-25T03:46:08.584Z,6.50
2022-07-25T03:47:08.415Z,6.10
2022-07-25T03:48:08.405Z,6.30
2022-07-25T03:49:08.432Z,6.30
2022-07-25T03:50:08.404Z,6.00
2022-07-25T03:51:08.369Z,6.10
2022-07-25T03:52:08.356Z,6.00
2022-07-25T03:53:10.231Z,6.60
2022-07-25T03:54:08.611Z,5.90
2022-07-25T03:55:08.355Z,6.90
2022-07-25T03:56:08.317Z,6.60
2022-07-25T03:57:08.326Z,6.40
2022-07-25T03:58:08.297Z,6.00
2022-07-25T03:59:08.298Z,6.50
2022-07-25T04:00:08.291Z,6.90
2022-07-25T04:01:08.295Z,6.40
2022-07-25T04:02:08.287Z,6.30
2022-07-25T04:03:08.241Z,6.40
2022-07-25T04:04:08.580Z,6.60
2022-07-25T04:05:08.241Z,6.50
2022-07-25T04:06:08.222Z,6.60
2022-07-25T04:07:08.212Z,6.80
2022-07-25T04:08:08.181Z,6.70
2022-07-25T04:09:08.193Z,6.80
2022-07-25T04:10:08.189Z,7.50
2022-07-25T04:11:08.182Z,7.00
2022-07-25T04:12:08.149Z,7.00
2022-07-25T04:13:08.134Z,7.30
2022-07-25T04:14:08.553Z,6.90
2022-07-25T04:15:08.122Z,7.40
2022-07-25T04:16:11.664Z,7.30
2022-07-25T04:17:09.182Z,6.80
2022-07-25T04:18:08.085Z,7.40
2022-07-25T04:19:08.094Z,7.40
2022-07-25T04:20:08.057Z,6.90
2022-07-25T04:21:08.086Z,7.20
2022-07-25T04:22:08.037Z,8.30
2022-07-25T04:23:08.039Z,8.30
2022-07-25T04:24:08.417Z,8.80
2022-07-25T04:25:08.009Z,9.00
2022-07-25T04:26:08.031Z,9.00
2022-07-25T04:27:07.994Z,8.80
2022-07-25T04:28:07.977Z,8.40
2022-07-25T04:29:07.970Z,8.50
2022-07-25T04:30:07.952Z,8.50
2022-07-25T04:31:07.972Z,8.50
2022-07-25T04:32:08.012Z,7.70
2022-07-25T04:33:07.925Z,8.30
2022-07-25T04:34:08.531Z,7.70
2022-07-25T04:35:07.913Z,8.20
2022-07-25T04:36:07.923Z,8.00
2022-07-25T04:37:07.882Z,8.00
2022-07-25T04:38:11.993Z,8.10
2022-07-25T04:39:07.866Z,7.70
2022-07-25T04:40:07.854Z,7.40
2022-07-25T04:41:07.887Z,8.50
2022-07-25T04:42:07.832Z,7.60
2022-07-25T04:43:07.825Z,8.20
2022-07-25T04:44:08.352Z,8.20
2022-07-25T04:45:07.796Z,8.30
2022-07-25T04:46:07.879Z,8.00
2022-07-25T04:47:07.776Z,8.40
2022-07-25T04:48:07.767Z,7.20
2022-07-25T04:49:07.823Z,7.50
2022-07-25T04:50:07.749Z,8.00
2022-07-25T04:51:07.751Z,8.50
2022-07-25T04:52:07.738Z,7.80
2022-07-25T04:53:07.709Z,7.20
2022-07-25T04:54:07.963Z,8.40
2022-07-25T04:55:07.690Z,7.70
2022-07-25T04:56:07.711Z,8.00
2022-07-25T04:57:07.675Z,7.90
2022-07-25T04:58:07.662Z,7.80
2022-07-25T04:59:07.641Z,7.20
2022-07-25T05:00:07.650Z,8.20
2022-07-25T05:01:07.752Z,7.30
2022-07-25T05:02:07.648Z,8.30
2022-07-25T05:03:07.610Z,8.30
2022-07-25T05:04:08.014Z,7.50
2022-07-25T05:05:07.588Z,7.70
2022-07-25T05:06:08.593Z,8.50
2022-07-25T05:07:07.564Z,8.10
2022-07-25T05:08:07.556Z,7.90
2022-07-25T05:09:07.547Z,8.20
2022-07-25T05:10:07.556Z,8.20
2022-07-25T05:11:07.546Z,8.30
2022-07-25T05:12:07.517Z,8.20
2022-07-25T05:13:07.510Z,8.10
2022-07-25T05:14:08.004Z,8.50
2022-07-25T05:15:07.479Z,8.60
2022-07-25T05:16:07.537Z,7.80
2022-07-25T05:17:07.459Z,8.40
2022-07-25T05:18:07.449Z,8.30
2022-07-25T05:19:07.439Z,8.00
2022-07-25T05:20:07.430Z,8.20
2022-07-25T05:21:07.448Z,7.60
2022-07-25T05:22:07.410Z,8.10
2022-07-25T05:23:07.392Z,7.80
2022-07-25T05:24:07.836Z,8.40
2022-07-25T05:25:07.373Z,8.00
2022-07-25T05:26:07.382Z,8.20
2022-07-25T05:27:07.352Z,8.00
2022-07-25T05:28:07.345Z,7.80
2022-07-25T05:29:07.333Z,8.20
2022-07-25T05:30:07.325Z,8.30
2022-07-25T05:31:07.355Z,7.30
2022-07-25T05:32:07.305Z,7.30
2022-07-25T05:33:07.295Z,7.90
2022-07-25T05:34:07.665Z,7.80
2022-07-25T05:35:07.265Z,8.30
2022-07-25T05:36:07.286Z,7.70
2022-07-25T05:37:07.247Z,7.70
2022-07-25T05:38:07.240Z,8.30
2022-07-25T05:39:07.227Z,7.60
2022-07-25T05:40:07.219Z,7.80
2022-07-25T05:41:07.228Z,8.00
2022-07-25T05:42:07.199Z,8.50
2022-07-25T05:43:07.190Z,7.80
2022-07-25T05:44:07.493Z,7.80
2022-07-25T05:45:07.159Z,7.70
2022-07-25T05:46:07.184Z,8.00
2022-07-25T05:47:07.181Z,7.70
2022-07-25T05:48:07.141Z,7.60
2022-07-25T05:49:07.175Z,7.40
2022-07-25T05:50:07.121Z,7.30
2022-07-25T05:51:07.132Z,7.40
2022-07-25T05:52:12.576Z,7.60
2022-07-25T05:53:08.083Z,7.90
2022-07-25T05:54:07.469Z,7.50
2022-07-25T05:55:07.063Z,7.30
2022-07-25T05:56:07.086Z,7.40
2022-07-25T05:57:07.034Z,7.70
2022-07-25T05:58:07.034Z,7.50
2022-07-25T05:59:07.025Z,7.40
2022-07-25T06:00:07.016Z,7.00
2022-07-25T06:01:07.015Z,7.90
2022-07-25T06:02:07.124Z,7.20
2022-07-25T06:03:07.013Z,7.00
2022-07-25T06:04:07.462Z,7.10
2022-07-25T06:05:06.967Z,7.70
2022-07-25T06:06:06.991Z,7.50
2022-07-25T06:07:06.938Z,8.00
2022-07-25T06:08:06.945Z,7.10
2022-07-25T06:09:07.947Z,6.70
2022-07-25T06:10:06.900Z,6.80
2022-07-25T06:11:06.915Z,7.00
2022-07-25T06:12:06.880Z,7.40
2022-07-25T06:13:06.871Z,7.70
2022-07-25T06:14:07.206Z,7.00
2022-07-25T06:15:06.853Z,7.90
2022-07-25T06:16:07.929Z,7.20
2022-07-25T06:17:06.826Z,7.10
2022-07-25T06:18:06.823Z,7.20
2022-07-25T06:19:06.803Z,7.30
2022-07-25T06:20:06.803Z,6.60
2022-07-25T06:21:06.796Z,6.40
2022-07-25T06:22:06.774Z,7.10
2022-07-25T06:23:06.763Z,7.30
2022-07-25T06:24:07.283Z,7.20
2022-07-25T06:25:06.745Z,6.90
2022-07-25T06:26:06.768Z,7.20
2022-07-25T06:27:06.716Z,7.80
2022-07-25T06:28:06.719Z,7.30
2022-07-25T06:29:06.706Z,6.80
2022-07-25T06:30:11.289Z,7.40
2022-07-25T06:31:07.769Z,6.50
2022-07-25T06:32:06.671Z,6.40
2022-07-25T06:33:06.658Z,6.90
2022-07-25T06:34:07.025Z,7.00
2022-07-25T06:35:06.639Z,6.50
2022-07-25T06:36:06.651Z,6.60
2022-07-25T06:37:06.612Z,6.40
2022-07-25T06:38:06.617Z,7.30
2022-07-25T06:39:06.599Z,6.80
2022-07-25T06:40:06.587Z,6.50
2022-07-25T06:41:06.601Z,7.10
2022-07-25T06:42:06.583Z,6.50
2022-07-25T06:43:06.583Z,6.60
2022-07-25T06:44:06.830Z,6.80
2022-07-25T06:45:06.541Z,6.10
2022-07-25T06:46:06.544Z,6.40
2022-07-25T06:47:06.556Z,6.80
2022-07-25T06:48:06.505Z,6.80
2022-07-25T06:49:06.524Z,6.70
2022-07-25T06:50:07.488Z,7.10
2022-07-25T06:51:06.496Z,6.50
2022-07-25T06:52:06.457Z,6.80
2022-07-25T06:53:06.445Z,6.70
2022-07-25T06:54:06.808Z,7.10
2022-07-25T06:55:06.433Z,6.70
2022-07-25T06:56:06.438Z,6.10
2022-07-25T06:57:06.399Z,6.20
2022-07-25T06:58:06.398Z,6.30
2022-07-25T06:59:06.380Z,7.20
2022-07-25T07:00:06.380Z,7.30
2022-07-25T07:01:06.455Z,6.60
2022-07-25T07:02:06.360Z,7.20
2022-07-25T07:03:06.385Z,6.70
2022-07-25T07:04:06.602Z,7.10
2022-07-25T07:05:06.328Z,7.00
2022-07-25T07:06:06.332Z,6.60
2022-07-25T07:07:06.294Z,6.90
2022-07-25T07:08:06.283Z,6.70
2022-07-25T07:09:06.289Z,6.10
2022-07-25T07:10:06.265Z,6.90
2022-07-25T07:11:06.298Z,6.40
2022-07-25T07:12:06.252Z,6.50
2022-07-25T07:13:07.649Z,6.60
2022-07-25T07:14:06.655Z,6.60
2022-07-25T07:15:06.207Z,6.50
2022-07-25T07:16:06.298Z,6.40
2022-07-25T07:17:06.197Z,6.90
2022-07-25T07:18:06.188Z,7.00
2022-07-25T07:19:06.509Z,6.80
2022-07-25T07:20:06.169Z,6.90
2022-07-25T07:21:06.169Z,6.30
2022-07-25T07:22:06.140Z,7.50
2022-07-25T07:23:06.138Z,6.80
2022-07-25T07:24:06.119Z,6.60
2022-07-25T07:25:07.110Z,6.40
2022-07-25T07:26:06.131Z,7.10
2022-07-25T07:27:06.094Z,6.40
2022-07-25T07:28:06.078Z,6.50
2022-07-25T07:29:06.479Z,6.40
2022-07-25T07:30:06.110Z,7.00
2022-07-25T07:31:16.459Z,6.40
2022-07-25T07:32:07.151Z,6.80
2022-07-25T07:33:06.027Z,6.70
2022-07-25T07:34:06.015Z,6.50
2022-07-25T07:35:06.007Z,5.90
2022-07-25T07:36:06.016Z,6.10
2022-07-25T07:37:05.988Z,6.30
2022-07-25T07:38:05.985Z,6.60
2022-07-25T07:39:06.179Z,6.60
2022-07-25T07:40:05.958Z,6.20
2022-07-25T07:41:05.966Z,5.90
2022-07-25T07:42:05.940Z,6.20
2022-07-25T07:43:05.920Z,5.90
2022-07-25T07:44:05.917Z,6.10
2022-07-25T07:45:05.899Z,6.00
2022-07-25T07:46:05.993Z,6.40
2022-07-25T07:47:05.995Z,5.90
2022-07-25T07:48:06.871Z,5.70
2022-07-25T07:49:06.211Z,5.30
2022-07-25T07:50:05.854Z,5.70
2022-07-25T07:51:05.861Z,6.00
2022-07-25T07:52:05.834Z,6.00
2022-07-25T07:53:05.815Z,6.40
2022-07-25T07:54:05.804Z,6.20
2022-07-25T07:55:05.804Z,5.90
2022-07-25T07:56:05.807Z,5.80
2022-07-25T07:57:05.785Z,6.10
2022-07-25T07:58:05.765Z,5.70
2022-07-25T07:59:06.085Z,6.10
2022-07-25T08:00:05.746Z,6.30
2022-07-25T08:01:05.757Z,6.40
2022-07-25T08:02:05.783Z,6.30
2022-07-25T08:03:05.808Z,6.60
2022-07-25T08:04:05.729Z,6.50
2022-07-25T08:05:05.688Z,6.50
2022-07-25T08:06:05.709Z,6.20
2022-07-25T08:07:05.669Z,6.00
2022-07-25T08:08:05.660Z,6.10
2022-07-25T08:09:05.923Z,5.80
2022-07-25T08:10:05.649Z,6.50
2022-07-25T08:11:05.673Z,5.40
2022-07-25T08:12:05.621Z,6.30
2022-07-25T08:13:05.702Z,6.10
2022-07-25T08:14:05.922Z,5.70
2022-07-25T08:15:05.593Z,6.00
2022-07-25T08:16:05.650Z,5.50
2022-07-25T08:17:05.563Z,5.70
2022-07-25T08:18:05.555Z,6.20
2022-07-25T08:19:06.545Z,5.80
2022-07-25T08:20:27.661Z,6.20
2022-07-25T08:21:06.637Z,5.80
2022-07-25T08:22:05.516Z,6.00
2022-07-25T08:23:05.509Z,5.80
2022-07-25T08:24:05.734Z,6.10
2022-07-25T08:25:05.478Z,6.10
2022-07-25T08:26:05.501Z,6.20
2022-07-25T08:27:05.457Z,5.60
2022-07-25T08:28:05.457Z,5.60
2022-07-25T08:29:18.673Z,6.10
2022-07-25T08:30:06.430Z,5.80
2022-07-25T08:31:05.513Z,6.00
2022-07-25T08:32:05.410Z,6.10
2022-07-25T08:33:05.401Z,6.20
2022-07-25T08:34:05.608Z,5.80
2022-07-25T08:35:11.034Z,5.70
2022-07-25T08:36:06.393Z,6.20
2022-07-25T08:37:05.360Z,6.30
2022-07-25T08:38:05.343Z,6.00
2022-07-25T08:39:05.341Z,5.80
2022-07-25T08:40:05.323Z,5.80
2022-07-25T08:41:05.337Z,5.90
2022-07-25T08:42:10.616Z,6.00
2022-07-25T08:43:06.303Z,5.70
2022-07-25T08:44:05.443Z,5.40
2022-07-25T08:45:05.277Z,5.90
2022-07-25T08:46:05.347Z,5.70
2022-07-25T08:47:05.257Z,5.80
2022-07-25T08:48:05.241Z,5.50
2022-07-25T08:49:05.292Z,5.70
2022-07-25T08:50:05.233Z,5.80
2022-07-25T08:51:05.229Z,6.00
2022-07-25T08:52:05.200Z,5.60
2022-07-25T08:53:31.421Z,5.70
2022-07-25T08:54:06.771Z,5.80
2022-07-25T08:55:05.171Z,5.60
2022-07-25T08:56:10.741Z,5.80
2022-07-25T08:57:06.160Z,5.80
2022-07-25T08:58:05.141Z,5.90
2022-07-25T08:59:05.133Z,5.50
2022-07-25T09:00:05.113Z,5.70
2022-07-25T09:01:05.143Z,5.50
2022-07-25T09:02:05.172Z,5.60
2022-07-25T09:03:05.159Z,6.00
2022-07-25T09:04:05.390Z,5.30
2022-07-25T09:05:05.067Z,5.10
2022-07-25T09:06:05.080Z,5.50
2022-07-25T09:07:08.018Z,5.50
2022-07-25T09:08:05.034Z,5.40
2022-07-25T09:09:05.030Z,5.40
2022-07-25T09:10:05.019Z,5.00
2022-07-25T09:11:05.029Z,5.10
2022-07-25T09:12:04.989Z,5.10
2022-07-25T09:13:04.989Z,5.50
2022-07-25T09:14:05.812Z,5.40
2022-07-25T09:15:04.971Z,5.00
2022-07-25T09:16:05.001Z,5.50
2022-07-25T09:17:04.946Z,5.20
2022-07-25T09:18:04.932Z,5.40
2022-07-25T09:19:04.923Z,5.70
2022-07-25T09:20:04.912Z,6.10
2022-07-25T09:21:04.924Z,5.00
2022-07-25T09:22:04.905Z,5.50
2022-07-25T09:23:04.886Z,5.60
2022-07-25T09:24:05.126Z,4.80
2022-07-25T09:25:04.864Z,5.30
2022-07-25T09:26:04.875Z,4.70
2022-07-25T09:27:04.847Z,5.20
2022-07-25T09:28:04.828Z,5.50
2022-07-25T09:29:04.828Z,5.30
2022-07-25T09:30:04.828Z,5.10
2022-07-25T09:31:04.912Z,5.10
2022-07-25T09:32:04.788Z,5.30
2022-07-25T09:33:04.780Z,4.80
2022-07-25T09:34:05.135Z,4.80
2022-07-25T09:35:04.760Z,5.30
2022-07-25T09:36:04.780Z,4.80
2022-07-25T09:37:04.742Z,5.20
2022-07-25T09:38:04.737Z,5.00
2022-07-25T09:39:04.728Z,4.70
2022-07-25T09:40:04.715Z,5.00
2022-07-25T09:41:04.724Z,4.90
2022-07-25T09:42:04.708Z,4.90
2022-07-25T09:43:04.685Z,4.40
2022-07-25T09:44:05.013Z,4.80
2022-07-25T09:45:04.693Z,4.50
2022-07-25T09:46:04.736Z,5.10
2022-07-25T09:47:04.638Z,4.80
2022-07-25T09:48:04.629Z,4.90
2022-07-25T09:49:04.691Z,5.40
2022-07-25T09:50:04.618Z,5.30
2022-07-25T09:51:04.627Z,5.10
2022-07-25T09:52:04.595Z,5.00
2022-07-25T09:53:04.582Z,4.60
2022-07-25T09:54:04.866Z,5.00
2022-07-25T09:55:04.559Z,4.80
2022-07-25T09:56:04.570Z,5.10
2022-07-25T09:57:04.541Z,4.70
2022-07-25T09:58:04.531Z,4.80
2022-07-25T09:59:04.524Z,4.80
2022-07-25T10:00:04.514Z,5.30
2022-07-25T10:01:04.590Z,4.90
2022-07-25T10:02:04.555Z,4.70
2022-07-25T10:03:04.559Z,4.80
2022-07-25T10:04:04.799Z,5.00
2022-07-25T10:05:04.464Z,4.80
2022-07-25T10:06:04.476Z,4.90
2022-07-25T10:07:04.446Z,4.70
2022-07-25T10:08:04.425Z,5.70
2022-07-25T10:09:04.430Z,5.00
2022-07-25T10:10:04.407Z,5.20
2022-07-25T10:11:04.418Z,5.30
2022-07-25T10:12:04.388Z,5.00
2022-07-25T10:13:09.973Z,5.10
2022-07-25T10:14:05.570Z,4.70
2022-07-25T10:15:04.359Z,4.50
2022-07-25T10:16:04.368Z,4.80
2022-07-25T10:17:04.409Z,4.50
2022-07-25T10:18:04.340Z,5.10
2022-07-25T10:19:04.319Z,5.20
2022-07-25T10:20:04.309Z,4.90
2022-07-25T10:21:17.835Z,5.00
2022-07-25T10:22:05.292Z,4.50
2022-07-25T10:23:04.292Z,4.70
2022-07-25T10:24:05.029Z,4.40
2022-07-25T10:25:04.255Z,4.60
2022-07-25T10:26:04.265Z,4.80
2022-07-25T10:27:04.236Z,4.20
2022-07-25T10:28:04.233Z,4.70
2022-07-25T10:29:04.215Z,4.80
2022-07-25T10:30:04.197Z,4.90
2022-07-25T10:31:04.296Z,5.10
2022-07-25T10:32:04.186Z,4.80
2022-07-25T10:33:04.168Z,4.60
2022-07-25T10:34:04.472Z,4.40
2022-07-25T10:35:04.149Z,4.60
2022-07-25T10:36:04.160Z,5.10
2022-07-25T10:37:04.136Z,4.50
2022-07-25T10:38:04.243Z,5.10
2022-07-25T10:39:04.110Z,4.60
2022-07-25T10:40:04.110Z,4.90
2022-07-25T10:41:04.112Z,4.50
2022-07-25T10:42:04.081Z,4.80
2022-07-25T10:43:04.072Z,4.20
2022-07-25T10:44:04.340Z,4.80
2022-07-25T10:45:04.046Z,4.50
2022-07-25T10:46:04.092Z,4.90
2022-07-25T10:47:04.025Z,4.70
2022-07-25T10:48:04.015Z,4.40
2022-07-25T10:49:04.391Z,4.30
2022-07-25T10:50:22.179Z,4.40
2022-07-25T10:51:05.007Z,4.40
2022-07-25T10:52:03.975Z,4.40
2022-07-25T10:53:03.970Z,4.60
2022-07-25T10:54:03.955Z,4.50
2022-07-25T10:55:03.948Z,4.50
2022-07-25T10:56:06.807Z,4.20
2022-07-25T10:57:03.922Z,4.60
2022-07-25T10:58:17.019Z,4.50
2022-07-25T10:59:05.223Z,4.50
2022-07-25T11:00:03.892Z,4.50
2022-07-25T11:01:03.933Z,4.20
2022-07-25T11:02:03.994Z,4.90
2022-07-25T11:03:03.891Z,4.90
2022-07-25T11:04:03.852Z,4.70
2022-07-25T11:05:03.847Z,4.30
2022-07-25T11:06:03.867Z,4.30
2022-07-25T11:07:03.844Z,4.60
2022-07-25T11:08:21.144Z,4.60
2022-07-25T11:09:05.040Z,4.40
2022-07-25T11:10:03.795Z,4.50
2022-07-25T11:11:03.809Z,4.10
2022-07-25T11:12:03.777Z,4.20
2022-07-25T11:13:03.768Z,4.50
2022-07-25T11:14:03.758Z,4.50
2022-07-25T11:15:03.967Z,4.30
2022-07-25T11:16:03.757Z,4.50
2022-07-25T11:17:03.822Z,4.40
2022-07-25T11:18:03.717Z,4.30
2022-07-25T11:19:04.026Z,4.10
2022-07-25T11:20:03.690Z,4.10
2022-07-25T11:21:06.437Z,4.50
2022-07-25T11:22:03.672Z,4.40
2022-07-25T11:23:03.672Z,4.60
2022-07-25T11:24:03.658Z,4.70
2022-07-25T11:25:03.658Z,4.50
2022-07-25T11:26:03.658Z,4.20
2022-07-25T11:27:06.158Z,4.40
2022-07-25T11:28:04.616Z,4.90
2022-07-25T11:29:04.042Z,4.60
2022-07-25T11:30:03.605Z,4.20
2022-07-25T11:31:03.617Z,4.40
2022-07-25T11:32:03.695Z,3.90
2022-07-25T11:33:03.576Z,4.10
2022-07-25T11:34:03.553Z,4.70
2022-07-25T11:35:03.559Z,4.10
2022-07-25T11:36:03.561Z,3.70
2022-07-25T11:37:03.530Z,4.10
2022-07-25T11:38:03.517Z,4.40
2022-07-25T11:39:03.677Z,3.90
2022-07-25T11:40:03.491Z,4.20
2022-07-25T11:41:03.510Z,4.30
2022-07-25T11:42:03.474Z,4.20
2022-07-25T11:43:03.475Z,4.00
2022-07-25T11:44:03.463Z,4.40
2022-07-25T11:45:03.444Z,4.10
2022-07-25T11:46:03.555Z,4.40
2022-07-25T11:47:03.425Z,3.90
2022-07-25T11:48:03.405Z,4.00
2022-07-25T11:49:03.635Z,4.00
2022-07-25T11:50:03.386Z,4.30
2022-07-25T11:51:03.385Z,4.30
2022-07-25T11:52:03.388Z,4.10
2022-07-25T11:53:03.440Z,4.20
2022-07-25T11:54:03.349Z,4.00
2022-07-25T11:55:03.352Z,4.40
2022-07-25T11:56:19.572Z,4.40
2022-07-25T11:57:04.340Z,4.40
2022-07-25T11:58:03.310Z,3.80
2022-07-25T11:59:03.496Z,4.20
2022-07-25T12:00:03.282Z,4.70
2022-07-25T12:01:03.281Z,4.70
2022-07-25T12:02:03.367Z,4.90
2022-07-25T12:03:03.398Z,4.40
2022-07-25T12:04:03.253Z,4.70
2022-07-25T12:05:03.233Z,4.20
2022-07-25T12:06:03.225Z,4.30
2022-07-25T12:07:03.236Z,4.20
2022-07-25T12:08:03.205Z,4.00
2022-07-25T12:09:03.356Z,4.80
2022-07-25T12:10:03.185Z,4.20
2022-07-25T12:11:03.177Z,4.10
2022-07-25T12:12:03.192Z,4.30
2022-07-25T12:13:03.166Z,4.40
2022-07-25T12:14:03.158Z,4.00
2022-07-25T12:15:03.138Z,4.10
2022-07-25T12:16:03.126Z,4.30
2022-07-25T12:17:03.256Z,3.90
2022-07-25T12:18:03.109Z,4.40
2022-07-25T12:19:03.281Z,3.90
2022-07-25T12:20:06.672Z,4.30
2022-07-25T12:21:04.081Z,3.70
2022-07-25T12:22:03.092Z,4.10
2022-07-25T12:23:03.059Z,4.20
2022-07-25T12:24:03.044Z,4.60
2022-07-25T12:25:03.051Z,4.10
2022-07-25T12:26:03.022Z,4.10
2022-07-25T12:27:03.046Z,4.40
2022-07-25T12:28:03.006Z,4.50
2022-07-25T12:29:03.248Z,3.90
2022-07-25T12:30:03.129Z,4.10
2022-07-25T12:31:03.009Z,3.90
2022-07-25T12:32:02.987Z,3.70
2022-07-25T12:33:02.958Z,4.00
2022-07-25T12:34:02.946Z,4.20
2022-07-25T12:35:02.939Z,4.00
2022-07-25T12:36:08.050Z,4.20
2022-07-25T12:37:03.939Z,4.10
2022-07-25T12:38:02.909Z,3.90
2022-07-25T12:39:03.093Z,3.80
2022-07-25T12:40:02.926Z,4.00
2022-07-25T12:41:02.880Z,3.50
2022-07-25T12:42:02.881Z,3.50
2022-07-25T12:43:02.866Z,4.10
2022-07-25T12:44:02.841Z,3.90
2022-07-25T12:45:02.833Z,4.10
2022-07-25T12:46:02.861Z,4.00
2022-07-25T12:47:02.843Z,3.70
2022-07-25T12:48:02.812Z,4.30
2022-07-25T12:49:02.865Z,4.40
2022-07-25T12:50:02.868Z,4.40
2022-07-25T12:51:02.776Z,4.80
2022-07-25T12:52:02.789Z,4.20
2022-07-25T12:53:02.758Z,4.40
2022-07-25T12:54:02.748Z,4.50
2022-07-25T12:55:02.771Z,4.10
2022-07-25T12:56:02.744Z,4.10
2022-07-25T12:57:02.739Z,4.10
2022-07-25T12:58:02.711Z,4.60
2022-07-25T12:59:02.811Z,4.90
2022-07-25T13:00:02.688Z,5.80
2022-07-25T13:01:03.711Z,5.80
2022-07-25T13:02:02.784Z,4.70
2022-07-25T13:03:02.686Z,4.90
2022-07-25T13:04:02.651Z,4.90
2022-07-25T13:05:02.636Z,4.60
2022-07-25T13:06:02.624Z,4.50
2022-07-25T13:07:02.643Z,4.50
2022-07-25T13:08:02.604Z,5.00
2022-07-25T13:09:02.594Z,4.70
2022-07-25T13:10:02.586Z,4.70
2022-07-25T13:11:02.574Z,5.30
2022-07-25T13:12:02.594Z,5.00
2022-07-25T13:13:02.548Z,5.10
2022-07-25T13:14:03.495Z,4.50
2022-07-25T13:15:02.536Z,5.10
2022-07-25T13:16:02.662Z,5.30
2022-07-25T13:17:02.603Z,4.80
2022-07-25T13:18:02.506Z,5.00